Kinniconick, Kentucky
Current Conditions -  °F | °C
As of 1:35 PM on Monday 26 Jan 2015 (Local Time) from KFGX Reporting Station
Overcast Overcast  
Wind Chill: 15°   Ceiling: 1200
Heat Index: 25°   Visibility: 10mi
Dew Point: 20°   Wind: 9mph
Humidity: 83%   Direction: 320°NW
Pressure: 29.88"   Gusts: NA
Location:  38.4929°N, 83.3898°W
Report Text: KFGX 261835Z AUTO 32008KT 10SM OVC012 M04/M07 A2988 RMK AO2 T10411066
Loading
Personal Weather Stations






























Interactive Weather Map New forecast layout! Learn more

10-Day Weather Forecast

Advertisements
Track Severe Weather on mobile